Glennallen, AK (99588)

4:44 AM AKDT on October 24, 2014 (GMT -0800)
AKDOT Glenn Highway @ MP 176.6 | Change Station
CLOSE
Current Station
Personal Weather Station
Location: Glennallen, AK
Elevation: 2112 ft
Nearby Weather Stations

Elev 2112 ft 62.11 °N, 145.85 °W | Updated 49 minutes ago

Overcast
Overcast
24 °F
Feels Like 24 °F
N
2
Wind Variable Wind from West
Gusts 4.0 mph

Today
High -- | Low -- °F
--% Chance of Precip.
Yesterday
High -- | Low -- °F
Precip. -- in
8:55 AM 6:02 PM
New Moon, 0% visible
Pressure 29.84 in
Visibility 10.0 miles
Clouds Overcast 2400 ft
Windchill 24 °F
Dew Point 23 °F
Humidity 95%
Rainfall -999.00 in
Snow Depth Not available.
UV 0 out of 12
Pollen Not available.
Air Quality Not available.
Flu Activity Sporadic
METAR PAGK 241153Z AUTO 00000KT 10SM OVC024 M04/M05 A2975 RMK AO2 SLP104 T10391050 11033 21044 53003 TSNO

More Conditions Fewer Conditions

Pressure 29.84 in
Visibility 10.0 miles
Clouds Overcast 2400 ft
Windchill 24 °F
Dew Point 23 °F
Humidity 95%
Rainfall -999.00 in
Snow Depth Not available.
UV 0 out of 12
Pollen Not available.
Air Quality Not available.
Flu Activity Sporadic
METAR PAGK 241153Z AUTO 00000KT 10SM OVC024 M04/M05 A2975 RMK AO2 SLP104 T10391050 11033 21044 53003 TSNO

More Conditions Fewer Conditions

10-Day Weather Forecast

Almanac

Astronomy

Oct. 24, 2014 Rise Set
Actual Time 8:55 AM AKDT 6:02 PM AKDT
Civil Twilight 8:08 AM AKDT 6:49 PM AKDT
Nautical Twilight 7:16 AM AKDT 7:41 PM AKDT
Astronomical Twilight 6:25 AM AKDT 8:32 PM AKDT
Moon 9:57 AM AKDT 6:31 PM AKDT
Length of Visible Light 10h 41m
Length of Day
9h 07m
Tomorrow will be 5m 50s shorter.
New Moon, 0% of the Moon is Illuminated
Today
New Moon
Oct 30
First Quarter
Nov 6
Full
Nov 14
Last Quarter
Nov 22
New

Today's Extremes

State Highs State Lows

Community

WunderPhotos

Upload Photos

1,764,544 photos uploaded!

Nearby

Snow Depth

Station Depth Elevation
Upper Tsaina River 9 in 1750 ft
Moraine 0 in 2100 ft
Susitna Valley High 0 in 375 ft
Indian Pass 7 in 2300 ft
Turnagain Pass 7 in 1880 ft

Earthquake Activity

City Distance Mag. Time & Date
No recent earthquake activity has been reported nearby.
Minimum magnitude displayed is 2.5.

Coastal Water Temperatures

Place Temperature
No Stations Reporting

Nearby Weather Stations